METAR Data
IDs: Format: Raw Decoded Include TAF

Data at: 0513 UTC 26 Sep 2018

KOJA 260455Z AUTO 03014G21KT 10SM OVC060 18/12 A3018 RMK AO2
KOJA 260435Z AUTO 02012G19KT 10SM BKN060 BKN075 OVC090 18/13 A3018 RMK AO2
KOJA 260415Z AUTO 03011G16KT 10SM OVC050 18/13 A3017 RMK AO2
KOJA 260355Z AUTO 02012G17KT 10SM BKN050 OVC060 18/13 A3016 RMK AO2
KOJA 260335Z AUTO 03012G19KT 10SM BKN050 OVC060 18/13 A3014 RMK AO2
KOJA 260315Z AUTO 03009G18KT 10SM OVC050 19/12 A3014 RMK AO2
KOJA 260255Z AUTO 02013G20KT 10SM OVC050 19/12 A3013 RMK AO2
KOJA 260235Z AUTO 02013G21KT 10SM BKN050 BKN085 19/12 A3012 RMK AO2
KOJA 260215Z AUTO 01014G27KT 10SM BKN085 20/13 A3011 RMK AO2
KOJA 260155Z AUTO 02014G20KT 10SM BKN085 20/13 A3009 RMK AO2
KOJA 260135Z AUTO 01011G16KT 10SM CLR 21/15 A3008 RMK AO2
KOJA 260115Z AUTO 02009G14KT 10SM CLR 21/15 A3006 RMK AO2
KOJA 260055Z AUTO 01010G16KT 10SM CLR 21/15 A3006 RMK AO2
KOJA 260035Z AUTO 01012G16KT 10SM CLR 21/14 A3004 RMK AO2
KOJA 260015Z AUTO 01014G19KT 10SM CLR 21/15 A3003 RMK AO2
KOJA 252355Z AUTO 36016G21KT 10SM CLR 22/16 A3002 RMK AO2
KOJA 252335Z AUTO 01018G25KT 10SM CLR 23/16 A3001 RMK AO2
KOJA 252315Z AUTO 36015G26KT 10SM CLR 23/17 A2999 RMK AO2
KOJA 252255Z AUTO 36016G22KT 10SM CLR 25/17 A2999 RMK AO2
KOJA 252235Z AUTO 01017G21KT 10SM CLR 25/17 A2997 RMK AO2
KOJA 252215Z AUTO 35015G22KT 10SM CLR 26/18 A2996 RMK AO2
KOJA 252155Z AUTO 36017G26KT 10SM SCT070 27/18 A2995 RMK AO2
KOJA 252135Z AUTO 33007KT 10SM CLR 30/16 A2993 RMK AO2
KOJA 252115Z AUTO 28008KT 10SM SCT050 30/16 A2993 RMK AO2
KOJA 252055Z AUTO 31006KT 10SM SCT050 30/18 A2993 RMK AO2
KOJA 252035Z AUTO 28007KT 10SM BKN050 30/18 A2993 RMK AO2
KOJA 252015Z AUTO 28007KT 10SM CLR 29/18 A2993 RMK AO2
KOJA 251955Z AUTO 25009KT 10SM CLR 30/18 A2993 RMK AO2
KOJA 251935Z AUTO 27007KT 10SM SCT045 29/19 A2993 RMK AO2
KOJA 251915Z AUTO 25005KT 10SM CLR 29/19 A2993 RMK AO2
KOJA 251855Z AUTO 25010KT 10SM CLR 28/19 A2993 RMK AO2
KOJA 251835Z AUTO 23011G18KT 200V260 10SM CLR 28/19 A2993 RMK AO2
KOJA 251815Z AUTO 24010G17KT 10SM CLR 28/20 A2993 RMK AO2
KOJA 251755Z AUTO 23012KT 10SM CLR 28/20 A2993 RMK AO2
KOJA 251735Z AUTO 23013G17KT 10SM CLR 28/20 A2993 RMK AO2
KOJA 251715Z AUTO 22010G19KT 10SM CLR 27/20 A2994 RMK AO2
KOJA 251655Z AUTO 21010G21KT 10SM CLR 27/20 A2993 RMK AO2
KOJA 251635Z AUTO 21011G19KT 10SM CLR 26/20 A2993 RMK AO2
KOJA 251615Z AUTO 20012G17KT 10SM CLR 26/20 A2992 RMK AO2
KOJA 251555Z AUTO 21014G19KT 10SM CLR 25/19 A2992 RMK AO2
KOJA 251535Z AUTO 20010G16KT 10SM CLR 25/20 A2992 RMK AO2
KOJA 251515Z AUTO 20010G18KT 10SM CLR 23/20 A2992 RMK AO2
KOJA 251455Z AUTO 19009G15KT 10SM CLR 22/20 A2992 RMK AO2
KOJA 251435Z AUTO 20010G16KT 10SM CLR 22/20 A2992 RMK AO2
KOJA 251415Z AUTO 19009G16KT 10SM CLR 21/20 A2992 RMK AO2
KOJA 251355Z AUTO 18008KT 10SM CLR 21/20 A2991 RMK AO2
KOJA 251335Z AUTO 16006KT 10SM CLR 20/20 A2991 RMK AO2
KOJA 251315Z AUTO 17007KT 10SM CLR 20/19 A2990 RMK AO2
KOJA 251255Z AUTO 17007KT 10SM CLR 19/19 A2990 RMK AO2
KOJA 251235Z AUTO 17007KT 10SM CLR 18/18 A2990 RMK AO2
KOJA 251215Z AUTO 17006KT 10SM CLR 18/18 A2989 RMK AO2
KOJA 251155Z AUTO 16005KT 10SM CLR 18/18 A2989 RMK AO2
KOJA 251135Z AUTO 16007KT 10SM CLR 18/18 A2989 RMK AO2
KOJA 251115Z AUTO 16007KT 10SM CLR 18/18 A2989 RMK AO2
KOJA 251055Z AUTO 17006KT 10SM CLR 18/18 A2988 RMK AO2
KOJA 251035Z AUTO 16005KT 10SM CLR 18/18 A2988 RMK AO2
KOJA 251015Z AUTO 17004KT 10SM CLR 18/18 A2988 RMK AO2
KOJA 250955Z AUTO 16005KT 10SM CLR 18/18 A2988 RMK AO2
KOJA 250935Z AUTO 17008KT 10SM CLR 19/19 A2988 RMK AO2
KOJA 250915Z AUTO 17008KT 10SM CLR 19/19 A2987 RMK AO2
KOJA 250855Z AUTO 16008KT 10SM CLR 19/19 A2987 RMK AO2
KOJA 250840Z AUTO 16007KT 10SM CLR 19/19 A2987 RMK AO2
KOJA 250815Z AUTO 16007KT 10SM CLR 19/19 A2987 RMK AO2
KOJA 250755Z AUTO 15006KT 10SM CLR 19/19 A2988 RMK AO2
KOJA 250735Z AUTO 17007KT 10SM CLR 20/19 A2987 RMK AO2
KOJA 250715Z AUTO 17008KT 10SM CLR 20/19 A2987 RMK AO2
KOJA 250655Z AUTO 17006KT 10SM CLR 20/19 A2987 RMK AO2
KOJA 250635Z AUTO 17008KT 10SM CLR 20/19 A2987 RMK AO2
KOJA 250615Z AUTO 17010G15KT 10SM CLR 20/20 A2987 RMK AO2
KOJA 250555Z AUTO 16010KT 10SM CLR 20/20 A2987 RMK AO2
KOJA 250535Z AUTO 17009KT 10SM CLR 20/20 A2987 RMK AO2
KOJA 250515Z AUTO 16009KT 10SM CLR 20/20 A2987 RMK AO2
KOJA 250455Z AUTO 16009KT 10SM CLR 20/20 A2987 RMK AO2
KOJA 250435Z AUTO 16008KT 10SM CLR 20/20 A2987 RMK AO2
KOJA 250415Z AUTO 16008KT 10SM CLR 20/20 A2987 RMK AO2
KOJA 250355Z AUTO 16008KT 10SM CLR 20/20 A2987 RMK AO2
KOJA 250335Z AUTO 16007KT 10SM CLR 20/20 A2986 RMK AO2
KOJA 250315Z AUTO 16007KT 10SM CLR 20/20 A2987 RMK AO2
KOJA 250255Z AUTO 15007KT 10SM CLR 20/20 A2986 RMK AO2
KOJA 250235Z AUTO 16008KT 10SM CLR 21/20 A2987 RMK AO2
KOJA 250215Z AUTO 16007KT 10SM CLR 21/20 A2986 RMK AO2
KOJA 250155Z AUTO 16008KT 10SM CLR 21/20 A2986 RMK AO2
KOJA 250135Z AUTO 16008KT 10SM CLR 21/20 A2985 RMK AO2
KOJA 250115Z AUTO 15006KT 10SM CLR 22/19 A2985 RMK AO2
KOJA 250055Z AUTO 16005KT 10SM CLR 22/19 A2985 RMK AO2
KOJA 250035Z AUTO 18006KT 10SM SCT031 23/19 A2985 RMK AO2
KOJA 250015Z AUTO 18009KT 10SM CLR 24/19 A2985 RMK AO2
KOJA 242355Z AUTO 19008G14KT 10SM CLR 25/19 A2984 RMK AO2
KOJA 242335Z AUTO 18010G14KT 10SM CLR 26/18 A2984 RMK AO2
KOJA 242315Z AUTO 19010KT 10SM CLR 26/18 A2984 RMK AO2
KOJA 242255Z AUTO 18011KT 10SM CLR 26/17 A2983 RMK AO2
KOJA 242235Z AUTO 20009KT 10SM CLR 27/17 A2983 RMK AO2
KOJA 242215Z AUTO 18010KT 10SM CLR 27/18 A2983 RMK AO2
KOJA 242155Z AUTO 19011G17KT 10SM CLR 27/18 A2983 RMK AO2
KOJA 242135Z AUTO 19011KT 10SM CLR 27/18 A2984 RMK AO2
KOJA 242115Z AUTO 20011G17KT 10SM CLR 27/19 A2984 RMK AO2
KOJA 242055Z AUTO 18013G17KT 10SM CLR 26/19 A2984 RMK AO2
KOJA 242035Z AUTO 18012KT 10SM CLR 26/19 A2984 RMK AO2
KOJA 242015Z AUTO 17011G16KT 10SM CLR 26/18 A2985 RMK AO2
KOJA 241955Z AUTO 19011G16KT 10SM CLR 25/18 A2986 RMK AO2
KOJA 241935Z AUTO 20009G14KT 10SM CLR 26/19 A2987 RMK AO2
KOJA 241915Z AUTO 17010G14KT 10SM CLR 26/18 A2988 RMK AO2
KOJA 241855Z AUTO 18011G15KT 10SM SCT026 26/19 A2989 RMK AO2
KOJA 241835Z AUTO 18009KT 10SM SCT024 25/19 A2990 RMK AO2
KOJA 241815Z AUTO 19010KT 170V230 10SM SCT024 25/18 A2991 RMK AO2
KOJA 241755Z AUTO 18008KT 10SM SCT022 25/18 A2992 RMK AO2
KOJA 241735Z AUTO 17009KT 10SM SCT020 23/18 A2993 RMK AO2
KOJA 241715Z AUTO 20006G20KT 10SM SCT020 23/18 A2994 RMK AO2